createdAt,value
2023-02-09T00:00:06.529Z,13.57
2023-02-09T00:02:40.581Z,14.30
2023-02-09T00:05:08.392Z,14.90
2023-02-09T00:07:35.760Z,13.93
2023-02-09T00:10:03.157Z,13.60
2023-02-09T00:12:48.359Z,14.70
2023-02-09T00:15:15.052Z,13.93
2023-02-09T00:17:41.700Z,14.30
2023-02-09T00:20:09.119Z,12.70
2023-02-09T00:22:35.799Z,14.10
2023-02-09T00:25:02.609Z,10.43
2023-02-09T00:27:29.938Z,12.35
2023-02-09T00:29:56.602Z,11.23
2023-02-09T00:32:23.279Z,14.23
2023-02-09T00:34:50.054Z,12.13
2023-02-09T00:37:16.823Z,17.02
2023-02-09T00:39:45.674Z,15.75
2023-02-09T00:42:12.419Z,12.75
2023-02-09T00:44:40.279Z,14.05
2023-02-09T00:47:08.982Z,13.45
2023-02-09T00:49:35.985Z,13.63
2023-02-09T00:52:04.144Z,13.95
2023-02-09T00:54:31.070Z,14.20
2023-02-09T00:57:04.901Z,15.23
2023-02-09T00:59:35.176Z,15.60
2023-02-09T01:02:02.927Z,17.08
2023-02-09T01:04:29.941Z,13.65
2023-02-09T01:06:56.652Z,14.90
2023-02-09T01:09:23.600Z,14.10
2023-02-09T01:11:50.382Z,16.02
2023-02-09T01:14:17.858Z,15.32
2023-02-09T01:16:44.661Z,17.10
2023-02-09T01:19:13.227Z,10.02
2023-02-09T01:21:40.300Z,15.60
2023-02-09T01:24:07.252Z,14.32
2023-02-09T01:26:33.930Z,13.52
2023-02-09T01:29:00.613Z,19.77
2023-02-09T01:31:30.869Z,11.05
2023-02-09T01:33:59.479Z,14.85
2023-02-09T01:36:30.529Z,12.27
2023-02-09T01:39:00.087Z,16.08
2023-02-09T01:41:27.443Z,13.30
2023-02-09T01:44:03.506Z,16.48
2023-02-09T01:46:35.308Z,17.98
2023-02-09T01:49:13.015Z,15.05
2023-02-09T01:51:44.932Z,17.70
2023-02-09T01:54:16.929Z,16.27
2023-02-09T01:56:47.504Z,13.15
2023-02-09T01:59:15.915Z,13.13
2023-02-09T02:01:43.856Z,15.20
2023-02-09T02:04:10.910Z,18.88
2023-02-09T02:06:37.958Z,14.45
2023-02-09T02:09:14.412Z,14.27
2023-02-09T02:11:45.885Z,14.15
2023-02-09T02:14:32.050Z,21.10
2023-02-09T02:17:26.211Z,18.60
2023-02-09T02:20:08.370Z,14.35
2023-02-09T02:22:58.218Z,17.92
2023-02-09T02:25:56.412Z,17.02
2023-02-09T02:28:43.560Z,19.95
2023-02-09T02:31:39.287Z,16.65
2023-02-09T02:34:12.326Z,16.13
2023-02-09T02:37:06.626Z,20.10
2023-02-09T02:40:03.331Z,17.25
2023-02-09T02:42:48.141Z,14.18
2023-02-09T02:45:28.996Z,16.88
2023-02-09T02:48:01.900Z,21.70
2023-02-09T02:50:32.829Z,16.95
2023-02-09T02:53:03.160Z,12.23
2023-02-09T02:55:32.218Z,13.07
2023-02-09T02:58:02.668Z,24.85
2023-02-09T03:00:34.866Z,16.80
2023-02-09T03:03:09.055Z,16.48
2023-02-09T03:05:37.438Z,15.23
2023-02-09T03:08:04.446Z,16.60
2023-02-09T03:10:34.813Z,16.35
2023-02-09T03:13:15.862Z,17.42
2023-02-09T03:16:16.356Z,17.20
2023-02-09T03:19:04.186Z,14.60
2023-02-09T03:21:47.983Z,15.63
2023-02-09T03:24:20.810Z,16.98
2023-02-09T03:26:55.976Z,16.65
2023-02-09T03:29:25.516Z,15.85
2023-02-09T03:31:53.385Z,21.60
2023-02-09T03:34:20.477Z,16.52
2023-02-09T03:36:52.369Z,21.40
2023-02-09T03:39:19.193Z,18.52
2023-02-09T03:41:46.401Z,15.00
2023-02-09T03:44:29.294Z,15.70
2023-02-09T03:47:14.326Z,15.13
2023-02-09T03:49:42.155Z,14.55
2023-02-09T03:52:12.001Z,17.33
2023-02-09T03:54:39.341Z,15.27
2023-02-09T03:57:07.261Z,13.68
2023-02-09T03:59:37.522Z,16.13
2023-02-09T04:02:06.590Z,16.63
2023-02-09T04:04:33.431Z,17.55
2023-02-09T04:07:00.332Z,17.73
2023-02-09T04:09:27.476Z,20.65
2023-02-09T04:11:54.274Z,12.88
2023-02-09T04:14:20.994Z,17.85
2023-02-09T04:16:47.788Z,22.75
2023-02-09T04:19:14.578Z,19.08
2023-02-09T04:21:41.336Z,17.20
2023-02-09T04:24:08.761Z,26.23
2023-02-09T04:26:36.027Z,18.10
2023-02-09T04:29:02.935Z,18.60
2023-02-09T04:31:29.846Z,17.77
2023-02-09T04:33:56.621Z,14.98
2023-02-09T04:36:23.447Z,18.98
2023-02-09T04:38:50.772Z,19.80
2023-02-09T04:41:17.804Z,17.02
2023-02-09T04:43:46.292Z,19.88
2023-02-09T04:46:17.587Z,16.13
2023-02-09T04:48:44.792Z,20.50
2023-02-09T04:51:11.745Z,19.00
2023-02-09T04:53:38.594Z,19.08
2023-02-09T04:56:05.726Z,21.02
2023-02-09T04:58:50.977Z,18.48
2023-02-09T05:01:21.219Z,21.90
2023-02-09T05:03:48.095Z,19.85
2023-02-09T05:06:14.802Z,22.13
2023-02-09T05:08:41.463Z,20.73
2023-02-09T05:11:08.157Z,19.65
2023-02-09T05:13:34.914Z,16.83
2023-02-09T05:16:10.250Z,16.45
2023-02-09T05:18:36.971Z,18.42
2023-02-09T05:21:04.554Z,18.20
2023-02-09T05:23:31.776Z,20.50
2023-02-09T05:25:59.036Z,21.58
2023-02-09T05:28:25.803Z,17.55
2023-02-09T05:30:53.901Z,17.08
2023-02-09T05:33:22.607Z,18.33
2023-02-09T05:35:51.422Z,19.25
2023-02-09T05:38:18.719Z,21.45
2023-02-09T05:40:45.715Z,21.42
2023-02-09T05:43:12.474Z,21.10
2023-02-09T05:45:39.205Z,24.20
2023-02-09T05:48:06.571Z,18.88
2023-02-09T05:50:33.605Z,21.88
2023-02-09T05:53:07.256Z,22.80
2023-02-09T05:55:33.906Z,21.02
2023-02-09T05:58:00.558Z,20.83
2023-02-09T06:00:29.617Z,17.38
2023-02-09T06:02:56.906Z,17.85
2023-02-09T06:05:24.032Z,19.08
2023-02-09T06:07:50.789Z,21.65
2023-02-09T06:10:18.580Z,18.75
2023-02-09T06:12:45.341Z,19.40
2023-02-09T06:15:12.261Z,20.05
2023-02-09T06:17:38.912Z,21.00
2023-02-09T06:20:06.230Z,21.45
2023-02-09T06:22:32.931Z,19.70
2023-02-09T06:24:59.650Z,18.83
2023-02-09T06:27:26.401Z,25.00
2023-02-09T06:29:53.258Z,20.08
2023-02-09T06:32:19.978Z,24.00
2023-02-09T06:34:46.640Z,23.13
2023-02-09T06:37:13.301Z,21.42
2023-02-09T06:39:39.954Z,18.67
2023-02-09T06:42:06.660Z,22.98
2023-02-09T06:44:33.310Z,21.98
2023-02-09T06:46:59.977Z,25.05
2023-02-09T06:49:26.711Z,22.35
2023-02-09T06:51:53.520Z,21.08
2023-02-09T06:54:20.817Z,21.42
2023-02-09T06:56:47.795Z,20.92
2023-02-09T06:59:15.966Z,22.45
2023-02-09T07:01:42.707Z,23.75
2023-02-09T07:04:09.377Z,20.73
2023-02-09T07:06:36.029Z,20.08
2023-02-09T07:09:02.771Z,22.00
2023-02-09T07:11:30.410Z,28.30
2023-02-09T07:13:57.069Z,21.30
2023-02-09T07:16:23.797Z,24.42
2023-02-09T07:18:50.481Z,23.35
2023-02-09T07:21:19.733Z,23.67
2023-02-09T07:23:50.329Z,19.40
2023-02-09T07:26:18.583Z,23.83
2023-02-09T07:28:45.358Z,22.80
2023-02-09T07:31:14.168Z,23.05
2023-02-09T07:33:41.632Z,21.02
2023-02-09T07:36:10.864Z,25.27
2023-02-09T07:38:38.176Z,26.55
2023-02-09T07:41:06.857Z,22.02
2023-02-09T07:43:34.522Z,21.38
2023-02-09T07:46:02.790Z,26.00
2023-02-09T07:48:30.335Z,24.70
2023-02-09T07:50:57.470Z,23.33
2023-02-09T07:53:24.458Z,22.83
2023-02-09T07:55:51.259Z,22.38
2023-02-09T07:58:19.810Z,21.27
2023-02-09T08:00:48.503Z,25.45
2023-02-09T08:03:17.312Z,26.65
2023-02-09T08:05:58.501Z,24.13
2023-02-09T08:08:25.200Z,22.25
2023-02-09T08:10:52.700Z,23.25
2023-02-09T08:13:19.499Z,26.42
2023-02-09T08:15:54.532Z,26.55
2023-02-09T08:18:25.189Z,22.83
2023-02-09T08:20:53.098Z,26.08
2023-02-09T08:23:23.550Z,19.27
2023-02-09T08:25:51.763Z,19.98
2023-02-09T08:28:31.812Z,26.60
2023-02-09T08:31:05.249Z,24.40
2023-02-09T08:33:31.972Z,23.92
2023-02-09T08:35:58.647Z,21.00
2023-02-09T08:38:25.344Z,23.55
2023-02-09T08:40:51.990Z,26.73
2023-02-09T08:43:18.638Z,24.75
2023-02-09T08:45:45.719Z,22.17
2023-02-09T08:48:12.602Z,20.65
2023-02-09T08:50:39.584Z,24.20
2023-02-09T08:53:06.883Z,27.95
2023-02-09T08:55:37.092Z,22.35
2023-02-09T08:58:04.759Z,22.77
2023-02-09T09:00:32.150Z,23.10
2023-02-09T09:02:58.801Z,21.02
2023-02-09T09:05:25.489Z,20.58
2023-02-09T09:07:52.134Z,21.67
2023-02-09T09:10:18.860Z,25.07
2023-02-09T09:12:45.582Z,22.63
2023-02-09T09:15:12.310Z,25.13
2023-02-09T09:17:38.974Z,20.00
2023-02-09T09:20:06.848Z,21.00
2023-02-09T09:22:33.605Z,21.57
2023-02-09T09:25:00.300Z,19.10
2023-02-09T09:27:28.169Z,21.93
2023-02-09T09:29:55.684Z,20.97
2023-02-09T09:32:24.678Z,19.10
2023-02-09T09:34:57.398Z,23.17
2023-02-09T09:37:25.541Z,22.90
2023-02-09T09:39:52.734Z,20.33
2023-02-09T09:42:27.318Z,21.00
2023-02-09T09:44:54.749Z,22.43
2023-02-09T09:47:52.598Z,19.70
2023-02-09T09:50:36.315Z,23.80
2023-02-09T09:53:28.675Z,19.80
2023-02-09T09:55:59.355Z,21.57
2023-02-09T09:58:28.784Z,22.00
2023-02-09T10:00:55.930Z,21.00
2023-02-09T10:03:23.993Z,20.37
2023-02-09T10:05:55.726Z,22.03
2023-02-09T10:08:34.289Z,20.37
2023-02-09T10:11:05.532Z,20.20
2023-02-09T10:13:39.865Z,20.43
2023-02-09T10:16:34.567Z,20.73
2023-02-09T10:19:04.018Z,20.40
2023-02-09T10:21:34.764Z,19.63
2023-02-09T10:24:01.413Z,18.50
2023-02-09T10:26:31.674Z,22.40
2023-02-09T10:29:07.284Z,22.00
2023-02-09T10:31:38.665Z,19.73
2023-02-09T10:34:08.357Z,24.53
2023-02-09T10:36:39.532Z,20.63
2023-02-09T10:39:15.915Z,20.27
2023-02-09T10:41:49.433Z,19.87
2023-02-09T10:44:34.432Z,19.60
2023-02-09T10:47:19.213Z,23.67
2023-02-09T10:50:04.405Z,24.33
2023-02-09T10:52:36.438Z,17.00
2023-02-09T10:55:17.102Z,21.97
2023-02-09T10:57:43.844Z,17.13
2023-02-09T11:00:16.525Z,20.20
2023-02-09T11:02:52.190Z,16.97
2023-02-09T11:05:21.915Z,23.97
2023-02-09T11:08:10.443Z,19.30
2023-02-09T11:10:56.084Z,24.10
2023-02-09T11:13:25.409Z,20.13
2023-02-09T11:15:58.255Z,24.27
2023-02-09T11:18:28.406Z,21.70
2023-02-09T11:21:09.894Z,21.50
2023-02-09T11:23:44.700Z,20.77
2023-02-09T11:26:24.672Z,20.87
2023-02-09T11:29:16.170Z,22.40
2023-02-09T11:31:59.649Z,16.70
2023-02-09T11:34:54.851Z,20.33
2023-02-09T11:37:33.814Z,22.20
2023-02-09T11:40:12.480Z,22.10
2023-02-09T11:43:01.666Z,20.07
2023-02-09T11:45:42.245Z,16.10
2023-02-09T11:48:33.110Z,17.60
2023-02-09T11:51:08.767Z,17.93
2023-02-09T11:54:03.773Z,18.37
2023-02-09T11:56:30.709Z,20.50
2023-02-09T11:58:57.332Z,19.07
2023-02-09T12:01:35.325Z,20.40
2023-02-09T12:04:24.774Z,18.30
2023-02-09T12:06:57.115Z,17.70
2023-02-09T12:09:31.321Z,17.30
2023-02-09T12:12:23.843Z,17.80
2023-02-09T12:15:14.304Z,16.03
2023-02-09T12:17:47.521Z,20.33
2023-02-09T12:20:28.897Z,14.67
2023-02-09T12:23:04.361Z,15.63
2023-02-09T12:25:59.957Z,18.20
2023-02-09T12:28:32.546Z,19.00
2023-02-09T12:31:04.536Z,16.87
2023-02-09T12:33:54.135Z,20.43
2023-02-09T12:36:34.551Z,21.33
2023-02-09T12:39:06.085Z,16.27
2023-02-09T12:41:42.160Z,21.00
2023-02-09T12:44:11.842Z,15.67
2023-02-09T12:46:44.271Z,18.70
2023-02-09T12:49:11.346Z,21.70
2023-02-09T12:51:42.717Z,18.10
2023-02-09T12:54:30.987Z,18.13
2023-02-09T12:57:16.164Z,18.53
2023-02-09T13:00:00.965Z,24.30
2023-02-09T13:02:43.154Z,15.30
2023-02-09T13:05:17.596Z,19.97
2023-02-09T13:07:56.260Z,20.37
2023-02-09T13:10:25.884Z,20.30
2023-02-09T13:13:14.114Z,15.63
2023-02-09T13:15:58.923Z,14.33
2023-02-09T13:18:52.116Z,17.03
2023-02-09T13:21:36.823Z,15.93
2023-02-09T13:24:14.081Z,17.00
2023-02-09T13:26:50.856Z,19.80
2023-02-09T13:29:22.153Z,19.47
2023-02-09T13:31:59.051Z,17.07
2023-02-09T13:34:45.056Z,18.80
2023-02-09T13:37:45.083Z,18.87
2023-02-09T13:40:31.453Z,16.43
2023-02-09T13:43:10.791Z,14.33
2023-02-09T13:45:47.068Z,16.33
2023-02-09T13:48:26.409Z,15.80
2023-02-09T13:50:55.058Z,16.77
2023-02-09T13:53:24.861Z,18.73
2023-02-09T13:55:52.941Z,16.27
2023-02-09T13:58:35.690Z,16.93
2023-02-09T14:01:08.985Z,16.23
2023-02-09T14:03:57.486Z,14.77
2023-02-09T14:06:40.299Z,20.40
2023-02-09T14:09:15.495Z,16.53
2023-02-09T14:11:47.005Z,16.27
2023-02-09T14:14:24.373Z,15.23
2023-02-09T14:17:22.918Z,16.53
2023-02-09T14:19:52.318Z,12.83
2023-02-09T14:22:37.151Z,14.07
2023-02-09T14:25:28.443Z,11.93
2023-02-09T14:27:56.668Z,14.90
2023-02-09T14:30:29.422Z,16.70
2023-02-09T14:32:58.015Z,16.50
2023-02-09T14:35:28.707Z,13.43
2023-02-09T14:37:58.162Z,16.50
2023-02-09T14:40:27.752Z,15.90
2023-02-09T14:43:11.072Z,15.53
2023-02-09T14:45:39.298Z,11.47
2023-02-09T14:48:26.489Z,13.17
2023-02-09T14:50:59.229Z,17.17
2023-02-09T14:53:31.370Z,14.83
2023-02-09T14:55:58.561Z,16.53
2023-02-09T14:58:26.918Z,16.17
2023-02-09T15:00:55.484Z,13.80
2023-02-09T15:03:22.448Z,12.50
2023-02-09T15:05:50.957Z,13.97
2023-02-09T15:08:22.880Z,13.93
2023-02-09T15:10:53.737Z,12.43
2023-02-09T15:13:21.351Z,16.30
2023-02-09T15:15:48.380Z,15.77
2023-02-09T15:18:24.474Z,15.40
2023-02-09T15:20:51.754Z,13.63
2023-02-09T15:23:18.760Z,13.20
2023-02-09T15:25:45.955Z,16.50
2023-02-09T15:28:27.763Z,14.00
2023-02-09T15:30:55.957Z,14.90
2023-02-09T15:33:23.163Z,14.50
2023-02-09T15:35:50.204Z,13.83
2023-02-09T15:38:18.311Z,13.00
2023-02-09T15:41:08.563Z,13.30
2023-02-09T15:43:53.985Z,16.80
2023-02-09T15:46:39.871Z,16.20
2023-02-09T15:49:07.242Z,18.37
2023-02-09T15:51:36.958Z,13.57
2023-02-09T15:54:12.027Z,13.80
2023-02-09T15:56:39.022Z,13.33
2023-02-09T15:59:06.229Z,13.60
2023-02-09T16:01:34.414Z,16.03
2023-02-09T16:04:13.567Z,14.20
2023-02-09T16:06:50.080Z,16.93
2023-02-09T16:09:20.129Z,18.63
2023-02-09T16:11:48.256Z,21.30
2023-02-09T16:14:22.576Z,21.10
2023-02-09T16:16:49.913Z,17.77
2023-02-09T16:19:17.025Z,15.33
2023-02-09T16:21:46.491Z,16.87
2023-02-09T16:24:23.002Z,16.83
2023-02-09T16:26:49.748Z,17.10
2023-02-09T16:29:17.106Z,14.50
2023-02-09T16:31:43.865Z,19.23
2023-02-09T16:34:15.110Z,42.07
2023-02-09T16:36:42.519Z,18.93
2023-02-09T16:39:17.410Z,15.73
2023-02-09T16:41:47.597Z,17.67
2023-02-09T16:44:17.183Z,18.70
2023-02-09T16:46:45.952Z,18.07
2023-02-09T16:49:41.526Z,19.40
2023-02-09T16:52:18.166Z,21.20
2023-02-09T16:54:48.699Z,22.67
2023-02-09T16:57:18.332Z,22.37
2023-02-09T16:59:45.469Z,22.07
2023-02-09T17:02:36.684Z,20.20
2023-02-09T17:05:22.281Z,22.37
2023-02-09T17:07:55.355Z,26.03
2023-02-09T17:10:25.966Z,22.07
2023-02-09T17:12:53.880Z,18.57
2023-02-09T17:15:30.204Z,24.10
2023-02-09T17:18:02.920Z,22.70
2023-02-09T17:20:36.584Z,23.23
2023-02-09T17:23:03.587Z,22.07
2023-02-09T17:25:30.363Z,39.33
2023-02-09T17:27:57.641Z,30.13
2023-02-09T17:30:24.368Z,31.53
2023-02-09T17:32:59.632Z,29.60
2023-02-09T17:35:52.954Z,26.83
2023-02-09T17:38:27.429Z,23.50
2023-02-09T17:40:56.410Z,28.77
2023-02-09T17:43:23.802Z,29.67
2023-02-09T17:45:51.185Z,34.17
2023-02-09T17:48:22.559Z,34.17
2023-02-09T17:50:52.459Z,29.53
2023-02-09T17:53:22.580Z,25.23
2023-02-09T17:55:50.143Z,26.40
2023-02-09T17:58:17.669Z,32.63
2023-02-09T18:00:45.451Z,27.83
2023-02-09T18:03:18.523Z,30.47
2023-02-09T18:05:48.819Z,33.33
2023-02-09T18:08:15.638Z,33.20
2023-02-09T18:10:42.307Z,38.70
2023-02-09T18:13:15.747Z,33.37
2023-02-09T18:15:43.116Z,44.00
2023-02-09T18:18:09.934Z,43.95
2023-02-09T18:20:37.232Z,42.00
2023-02-09T18:23:04.816Z,43.33
2023-02-09T18:25:34.735Z,41.77
2023-02-09T18:28:02.521Z,39.20
2023-02-09T18:30:32.105Z,34.80
2023-02-09T18:32:59.418Z,43.87
2023-02-09T18:35:33.841Z,42.50
2023-02-09T18:38:05.475Z,41.33
2023-02-09T18:40:32.643Z,32.20
2023-02-09T18:43:00.537Z,33.83
2023-02-09T18:45:27.707Z,37.42
2023-02-09T18:47:54.478Z,43.08
2023-02-09T18:50:23.756Z,46.30
2023-02-09T18:52:50.814Z,51.85
2023-02-09T18:55:18.082Z,30.00
2023-02-09T18:57:45.842Z,37.67
2023-02-09T19:00:14.903Z,38.25
2023-02-09T19:02:43.092Z,34.33
2023-02-09T19:05:09.984Z,32.60
2023-02-09T19:07:36.810Z,39.95
2023-02-09T19:10:05.876Z,42.30
2023-02-09T19:12:33.339Z,40.05
2023-02-09T19:15:00.411Z,36.22
2023-02-09T19:17:27.131Z,42.13
2023-02-09T19:19:56.830Z,40.22
2023-02-09T19:22:24.054Z,46.67
2023-02-09T19:24:53.250Z,48.80
2023-02-09T19:27:20.113Z,56.97
2023-02-09T19:29:47.265Z,74.33
2023-02-09T19:32:15.057Z,54.78
2023-02-09T19:34:43.026Z,54.50
2023-02-09T19:37:10.900Z,62.83
2023-02-09T19:39:39.737Z,62.58
2023-02-09T19:42:07.487Z,57.00
2023-02-09T19:44:35.026Z,42.42
2023-02-09T19:47:01.771Z,50.45
2023-02-09T19:49:28.615Z,52.23
2023-02-09T19:51:55.287Z,50.43
2023-02-09T19:54:22.439Z,54.75
2023-02-09T19:56:49.102Z,52.17
2023-02-09T19:59:17.056Z,45.25
2023-02-09T20:01:44.309Z,53.60
2023-02-09T20:04:11.423Z,56.83
2023-02-09T20:06:38.096Z,50.92
2023-02-09T20:09:05.209Z,48.67
2023-02-09T20:11:33.190Z,54.47
2023-02-09T20:16:28.058Z,48.73
2023-02-09T20:18:54.827Z,47.53
2023-02-09T20:21:22.865Z,56.07
2023-02-09T20:23:54.182Z,47.40
2023-02-09T20:26:24.438Z,45.20
2023-02-09T20:28:51.135Z,46.07
2023-02-09T20:31:23.840Z,47.97
2023-02-09T20:33:50.675Z,52.20
2023-02-09T20:36:18.424Z,46.80
2023-02-09T20:38:45.215Z,46.60
2023-02-09T20:41:15.294Z,52.77
2023-02-09T20:44:00.885Z,47.03
2023-02-09T20:46:48.491Z,39.60
2023-02-09T20:49:16.778Z,41.53
2023-02-09T20:51:44.805Z,47.13
2023-02-09T20:54:12.001Z,44.83
2023-02-09T20:56:38.685Z,49.37
2023-02-09T20:59:06.752Z,49.37
2023-02-09T21:01:33.652Z,49.00
2023-02-09T21:04:00.421Z,46.10
2023-02-09T21:06:27.283Z,43.07
2023-02-09T21:08:53.952Z,44.10
2023-02-09T21:11:21.436Z,39.50
2023-02-09T21:13:48.272Z,31.00
2023-02-09T21:16:16.007Z,36.50
2023-02-09T21:18:44.296Z,35.37
2023-02-09T21:21:15.893Z,31.53
2023-02-09T21:23:44.367Z,34.23
2023-02-09T21:26:14.497Z,30.40
2023-02-09T21:28:41.260Z,28.97
2023-02-09T21:31:12.723Z,27.83
2023-02-09T21:33:39.625Z,31.27
2023-02-09T21:36:07.204Z,34.37
2023-02-09T21:38:36.702Z,29.77
2023-02-09T21:41:38.772Z,32.07
2023-02-09T21:44:06.892Z,37.67
2023-02-09T21:46:34.340Z,35.80
2023-02-09T21:49:01.042Z,32.57
2023-02-09T21:51:27.706Z,38.53
2023-02-09T21:53:55.246Z,34.27
2023-02-09T21:56:21.955Z,32.50
2023-02-09T21:58:48.805Z,36.77
2023-02-09T22:01:15.951Z,34.50
2023-02-09T22:03:42.798Z,42.97
2023-02-09T22:06:10.349Z,32.30
2023-02-09T22:08:37.497Z,43.27
2023-02-09T22:11:08.329Z,34.77
2023-02-09T22:13:35.258Z,36.83
2023-02-09T22:16:08.448Z,34.33
2023-02-09T22:18:35.980Z,35.97
2023-02-09T22:21:07.370Z,32.67
2023-02-09T22:23:34.101Z,36.50
2023-02-09T22:26:02.232Z,32.83
2023-02-09T22:28:29.592Z,32.80
2023-02-09T22:30:56.822Z,33.27
2023-02-09T22:33:24.017Z,39.00
2023-02-09T22:35:50.666Z,37.77
2023-02-09T22:38:17.325Z,36.00
2023-02-09T22:40:43.973Z,32.87
2023-02-09T22:43:10.664Z,42.10
2023-02-09T22:45:37.315Z,33.57
2023-02-09T22:48:04.198Z,38.40
2023-02-09T22:50:30.993Z,38.70
2023-02-09T22:52:57.653Z,35.60
2023-02-09T22:55:24.339Z,48.03
2023-02-09T22:57:51.010Z,42.43
2023-02-09T23:00:18.026Z,41.50
2023-02-09T23:02:44.734Z,43.10
2023-02-09T23:05:11.362Z,46.30
2023-02-09T23:07:38.035Z,47.70
2023-02-09T23:10:05.265Z,45.43
2023-02-09T23:12:31.962Z,42.43
2023-02-09T23:14:58.593Z,50.03
2023-02-09T23:17:25.255Z,44.07
2023-02-09T23:19:52.230Z,52.07
2023-02-09T23:22:19.020Z,57.20
2023-02-09T23:24:45.670Z,45.97
2023-02-09T23:27:12.324Z,42.83
2023-02-09T23:29:38.984Z,41.20
2023-02-09T23:32:05.635Z,43.40
2023-02-09T23:34:33.455Z,42.67
2023-02-09T23:37:08.550Z,46.83
2023-02-09T23:39:45.052Z,48.47
2023-02-09T23:42:11.693Z,44.87
2023-02-09T23:44:38.410Z,48.97
2023-02-09T23:47:05.120Z,48.10
2023-02-09T23:49:31.846Z,53.20
2023-02-09T23:51:58.592Z,47.40
2023-02-09T23:54:25.246Z,45.67
2023-02-09T23:56:52.672Z,58.50
2023-02-09T23:59:19.331Z,46.67
